• Join FlightAware (Why Join?)
  • Login
  • US Flag 
11:35AM EDT


 

Airport Tracker/Info


-or-


 

Live Flight TrackerFlight Track Log ✈ VH-DMN ✈ 19-Jun-2013 ✈ YFTZ / FIZ - YBRM / BME

Flight Track Log - Related Links

Times and Time Zones

All times are in EDT time to prevent confusion due to time zone crossing. See the VH-DMN flight status page for this flight to view local times or setup timezone preferences in your user account.

Time Position Orientation Groundspeed Altitude Reporting Facility
EDT Latitude Longitude Course Direction KTS MPH feet Rate Location/Type
05:16AM -18.1863 125.5057 274° West 8,000  Level Aus ATC (Calculated)
05:17AM -18.1825 125.4510 360° North 8,000  Level Aus ATC (Calculated)
05:17AM -18.1825 125.4510 274° West 8,000  Level Aus ATC (Calculated)
05:19AM -18.1776 125.3793 274° West  Level FlightAware Approximate
05:20AM -18.1744 125.3336 274° West  Level FlightAware Approximate
05:20AM -18.1712 125.2871 95° East 8,000  Level Aus ATC (Calculated)
05:21AM -18.1712 125.2879 274° West  Level FlightAware Approximate
05:21AM -18.1673 125.2325 274° West 8,000  Level Aus ATC (Calculated)
05:23AM -18.1610 125.1426 274° West  Level FlightAware Approximate
05:23AM -18.1597 125.1232 274° West 8,000  Level Aus ATC (Calculated)
05:24AM -18.1574 125.0912 274° West  Level FlightAware Approximate
05:25AM -18.1553 125.0616 274° West  Level FlightAware Approximate
05:26AM -18.1516 125.0102 274° West  Level FlightAware Approximate
05:27AM -18.1480 124.9589 274° West  Level FlightAware Approximate
05:28AM -18.1443 124.9075 274° West  Level FlightAware Approximate
05:29AM -18.1406 124.8562 274° West  Level FlightAware Approximate
05:30AM -18.1369 124.8048 274° West  Level FlightAware Approximate
05:31AM -18.1332 124.7535 274° West  Level FlightAware Approximate
05:32AM -18.1295 124.7021 274° West  Level FlightAware Approximate
05:33AM -18.1257 124.6508 274° West  Level FlightAware Approximate
05:34AM -18.1220 124.5994 274° West  Level FlightAware Approximate
05:35AM -18.1182 124.5481 274° West  Level FlightAware Approximate
05:35AM -18.1203 124.5770 274° West 8,000  Level Aus ATC (Calculated)
05:36AM -18.1144 124.4968 274° West  Level FlightAware Approximate
05:37AM -18.1140 124.4915 274° West  Level FlightAware Approximate
05:37AM -18.1123 124.4678 274° West 8,000  Level Aus ATC (Calculated)
05:38AM -18.1102 124.4401 274° West  Level FlightAware Approximate
05:38AM -18.1082 124.4132 274° West 8,000  Level Aus ATC (Calculated)
05:39AM -18.1072 124.3994 274° West  Level FlightAware Approximate
05:39AM -18.1042 124.3586 275° West 8,000  Level Aus ATC (Calculated)
05:40AM -18.1036 124.3516 274° West  Level FlightAware Approximate
05:41AM -18.0996 124.2979 274° West  Level FlightAware Approximate
05:42AM -18.0958 124.2466 275° West  Level FlightAware Approximate
05:43AM -18.0919 124.1953 275° West  Level FlightAware Approximate
05:43AM -18.0878 124.1403 94° East 8,000  Level Aus ATC (Calculated)
05:44AM -18.0881 124.1439 275° West  Level FlightAware Approximate
05:45AM -18.0832 124.0796 275° West  Level FlightAware Approximate
05:46AM -18.0793 124.0283 275° West  Level FlightAware Approximate
05:47AM -18.0753 123.9770 275° West  Level FlightAware Approximate
05:48AM -18.0714 123.9257 275° West  Level FlightAware Approximate
05:49AM -18.0675 123.8744 275° West  Level FlightAware Approximate
05:49AM -18.0669 123.8674 274° West 8,000  Level Aus ATC (Calculated)
05:51AM -18.0622 123.8006 274° West  Level Estimated
05:52AM -18.0586 123.7493 274° West  Level FlightAware Approximate
05:53AM -18.0550 123.6980 274° West  Level FlightAware Approximate
05:54AM -18.0514 123.6467 274° West  Level FlightAware Approximate
05:55AM -18.0477 123.5953 274° West  Level FlightAware Approximate
05:56AM -18.0441 123.5440 274° West  Level FlightAware Approximate
05:57AM -18.0404 123.4927 274° West  Level FlightAware Approximate
05:58AM -18.0367 123.4414 274° West  Level FlightAware Approximate
05:59AM -18.0330 123.3901 274° West  Level FlightAware Approximate
05:59AM -18.0348 123.4182 274° West 300  Level Aus ATC (Calculated)
06:00AM -18.0293 123.3387 274° West  Level FlightAware Approximate
06:01AM -18.0288 123.3344 274° West  Level FlightAware Approximate
06:02AM -18.0251 123.2831 274° West  Level FlightAware Approximate
06:03AM -18.0213 123.2318 274° West  Level FlightAware Approximate
06:04AM -18.0176 123.1805 274° West  Level FlightAware Approximate
06:04AM -18.0133 123.1224 274° West 300  Level Aus ATC (Calculated)
06:06AM -18.0076 123.0437 274° West  Level FlightAware Approximate
06:07AM -18.0038 122.9924 274° West  Level FlightAware Approximate
06:07AM -18.0061 123.0238 360° North 300  Level Aus ATC (Calculated)
06:07AM -18.0061 123.0238 274° West 300  Level Aus ATC (Calculated)
06:09AM -18.0021 122.9699 274° West  Level FlightAware Approximate
06:10AM -17.9983 122.9186 274° West  Level FlightAware Approximate
06:11AM -17.9945 122.8673 274° West  Level FlightAware Approximate
06:12AM -17.9907 122.8160 274° West  Level FlightAware Approximate
06:13AM -17.9868 122.7648 275° West  Level FlightAware Approximate
06:14AM -17.9829 122.7135 275° West  Level FlightAware Approximate
06:15AM -17.9791 122.6622 275° West  Level FlightAware Approximate
06:16AM -17.9752 122.6109 275° West  Level FlightAware Approximate
06:17AM -17.9713 122.5596 275° West  Level FlightAware Approximate
06:18AM -17.9674 122.5083 275° West  Level FlightAware Approximate
06:18AM -17.9615 122.4324 360° North 300  Level Aus ATC (Calculated)
06:19AM -17.9615 122.4324 275° West 300  Level Aus ATC (Calculated)
06:20AM -17.9539 122.3338 275° West 300  Level Aus ATC (Calculated)
06:22AM -17.9466 122.2398 275° West  Level FlightAware Approximate
06:23AM -17.9447 122.2317 275° West  Level Estimated
06:24AM -17.9496 122.2277 245° Southwest  Level FlightAware Approximate
06:25AM -17.9447 122.2317 245° Southwest  Level Estimated
06:26AM -17.9496 122.2277 245° Southwest  Level FlightAware Approximate
06:27AM -17.9447 122.2317 245° Southwest  Level Estimated
06:28AM -17.9496 122.2277 245° Southwest  Level FlightAware Approximate
06:29AM -17.9447 122.2317 245° Southwest  Level Estimated
06:30AM -17.9496 122.2277 245° Southwest  Level FlightAware Approximate
06:31AM -17.9447 122.2317 245° Southwest  Level Estimated
06:32AM -17.9496 122.2277 245° Southwest  Level FlightAware Approximate
06:33AM -17.9447 122.2317 245° Southwest  Level Estimated
06:34AM -17.9496 122.2277 245° Southwest  Level FlightAware Approximate
06:35AM -17.9447 122.2317 245° Southwest  Level Estimated
06:36AM -17.9496 122.2277 245° Southwest  Level FlightAware Approximate